createdAt,value
2023-05-19T00:00:19.736Z,83.04
2023-05-19T00:01:19.769Z,83.14
2023-05-19T00:02:19.746Z,83.35
2023-05-19T00:03:19.782Z,83.45
2023-05-19T00:04:19.663Z,83.35
2023-05-19T00:05:19.770Z,83.45
2023-05-19T00:06:19.750Z,83.65
2023-05-19T00:07:19.993Z,83.86
2023-05-19T00:08:19.633Z,84.07
2023-05-19T00:09:19.623Z,84.27
2023-05-19T00:10:19.599Z,84.27
2023-05-19T00:11:19.601Z,84.58
2023-05-19T00:12:19.587Z,84.48
2023-05-19T00:13:19.927Z,84.48
2023-05-19T00:14:19.565Z,84.38
2023-05-19T00:15:19.576Z,84.52
2023-05-19T00:16:19.681Z,84.52
2023-05-19T00:17:19.556Z,84.52
2023-05-19T00:18:19.524Z,84.52
2023-05-19T00:19:19.586Z,84.62
2023-05-19T00:20:19.511Z,84.72
2023-05-19T00:21:19.494Z,84.93
2023-05-19T00:22:19.490Z,85.03
2023-05-19T00:23:19.485Z,85.14
2023-05-19T00:24:19.474Z,85.14
2023-05-19T00:25:19.797Z,85.44
2023-05-19T00:26:19.477Z,85.44
2023-05-19T00:27:19.439Z,85.55
2023-05-19T00:28:19.417Z,85.55
2023-05-19T00:29:19.418Z,85.75
2023-05-19T00:30:19.388Z,85.86
2023-05-19T00:31:19.480Z,85.89
2023-05-19T00:32:19.675Z,86.16
2023-05-19T00:33:19.414Z,86.16
2023-05-19T00:34:19.357Z,86.21
2023-05-19T00:35:19.452Z,86.31
2023-05-19T00:36:19.345Z,86.21
2023-05-19T00:37:19.358Z,86.31
2023-05-19T00:38:19.310Z,86.41
2023-05-19T00:39:19.603Z,86.61
2023-05-19T00:40:19.314Z,86.72
2023-05-19T00:41:19.285Z,86.82
2023-05-19T00:42:19.276Z,86.82
2023-05-19T00:43:19.303Z,86.93
2023-05-19T00:44:19.257Z,87.03
2023-05-19T00:45:19.259Z,87.34
2023-05-19T00:46:19.616Z,87.44
2023-05-19T00:47:19.268Z,87.75
2023-05-19T00:48:19.201Z,87.75
2023-05-19T00:49:19.242Z,87.75
2023-05-19T00:50:19.191Z,87.65
2023-05-19T00:51:19.209Z,87.65
2023-05-19T00:52:19.204Z,87.85
2023-05-19T00:53:19.437Z,87.96
2023-05-19T00:54:19.142Z,87.96
2023-05-19T00:55:19.178Z,87.96
2023-05-19T00:56:19.160Z,87.85
2023-05-19T00:57:19.109Z,87.85
2023-05-19T00:58:19.103Z,87.75
2023-05-19T00:59:19.096Z,87.75
2023-05-19T01:00:19.368Z,88.06
2023-05-19T01:01:19.187Z,88.17
2023-05-19T01:02:19.062Z,88.26
2023-05-19T01:03:19.145Z,88.47
2023-05-19T01:04:19.028Z,88.57
2023-05-19T01:05:19.049Z,88.68
2023-05-19T01:06:19.084Z,88.68
2023-05-19T01:07:19.376Z,88.78
2023-05-19T01:08:19.007Z,88.99
2023-05-19T01:09:18.987Z,89.09
2023-05-19T01:10:18.989Z,89.23
2023-05-19T01:11:19.010Z,89.44
2023-05-19T01:12:18.983Z,89.75
2023-05-19T01:13:19.014Z,90.16
2023-05-19T01:14:19.255Z,90.37
2023-05-19T01:15:18.938Z,90.26
2023-05-19T01:16:18.944Z,90.37
2023-05-19T01:17:18.910Z,90.67
2023-05-19T01:18:18.909Z,90.78
2023-05-19T01:19:18.997Z,90.99
2023-05-19T01:20:18.893Z,91.09
2023-05-19T01:21:19.146Z,91.09
2023-05-19T01:22:18.857Z,91.09
2023-05-19T01:23:18.872Z,91.19
2023-05-19T01:24:18.873Z,91.40
2023-05-19T01:25:18.875Z,91.54
2023-05-19T01:26:18.819Z,91.75
2023-05-19T01:27:18.819Z,91.75
2023-05-19T01:28:19.070Z,91.96
2023-05-19T01:29:18.898Z,92.16
2023-05-19T01:30:18.768Z,92.47
2023-05-19T01:31:18.903Z,92.68
2023-05-19T01:32:18.790Z,92.88
2023-05-19T01:33:18.761Z,92.88
2023-05-19T01:34:18.737Z,92.99
2023-05-19T01:35:19.024Z,93.09
2023-05-19T01:36:18.732Z,93.19
2023-05-19T01:37:18.747Z,93.19
2023-05-19T01:38:18.733Z,93.30
2023-05-19T01:39:18.710Z,93.40
2023-05-19T01:40:18.664Z,93.50
2023-05-19T01:41:18.658Z,93.71
2023-05-19T01:42:18.983Z,93.85
2023-05-19T01:43:18.706Z,94.06
2023-05-19T01:44:18.634Z,94.17
2023-05-19T01:45:18.634Z,94.27
2023-05-19T01:46:18.654Z,94.57
2023-05-19T01:47:18.594Z,94.68
2023-05-19T01:48:18.580Z,94.78
2023-05-19T01:49:18.905Z,94.78
2023-05-19T01:50:18.554Z,95.09
2023-05-19T01:51:18.574Z,95.20
2023-05-19T01:52:18.561Z,95.30
2023-05-19T01:53:18.557Z,95.40
2023-05-19T01:54:18.511Z,95.40
2023-05-19T01:55:18.575Z,95.50
2023-05-19T01:56:18.792Z,95.50
2023-05-19T01:57:18.540Z,95.61
2023-05-19T01:58:18.498Z,95.71
2023-05-19T01:59:18.468Z,95.92
2023-05-19T02:00:19.863Z,96.17
2023-05-19T02:01:18.530Z,96.44
2023-05-19T02:02:18.462Z,96.53
2023-05-19T02:03:18.738Z,96.74
2023-05-19T02:04:18.583Z,96.74
2023-05-19T02:05:18.411Z,96.89
2023-05-19T02:06:18.406Z,96.99
2023-05-19T02:07:18.446Z,97.09
2023-05-19T02:08:18.371Z,97.20
2023-05-19T02:09:18.369Z,97.20
2023-05-19T02:10:18.648Z,97.41
2023-05-19T02:11:18.343Z,97.41
2023-05-19T02:12:18.323Z,97.51
2023-05-19T02:13:18.364Z,97.61
2023-05-19T02:14:18.341Z,97.61
2023-05-19T02:15:18.315Z,97.82
2023-05-19T02:16:18.361Z,98.02
2023-05-19T02:17:18.566Z,98.02
2023-05-19T02:18:18.291Z,98.02
2023-05-19T02:19:18.343Z,98.13
2023-05-19T02:20:18.256Z,98.23
2023-05-19T02:21:18.254Z,98.23
2023-05-19T02:22:18.230Z,98.33
2023-05-19T02:23:18.256Z,98.33
2023-05-19T02:24:18.482Z,98.44
2023-05-19T02:25:18.258Z,98.54
2023-05-19T02:26:18.171Z,98.65
2023-05-19T02:27:18.175Z,98.65
2023-05-19T02:28:18.156Z,98.65
2023-05-19T02:29:18.150Z,98.54
2023-05-19T02:30:18.128Z,98.54
2023-05-19T02:31:18.553Z,98.44
2023-05-19T02:32:18.538Z,98.44
2023-05-19T02:33:18.104Z,98.54
2023-05-19T02:34:18.099Z,98.54
2023-05-19T02:35:18.131Z,98.65
2023-05-19T02:36:18.089Z,98.65
2023-05-19T02:37:18.114Z,98.75
2023-05-19T02:38:18.331Z,98.79
2023-05-19T02:39:18.078Z,99.00
2023-05-19T02:40:18.079Z,99.10
2023-05-19T02:41:18.033Z,99.31
2023-05-19T02:42:18.014Z,99.41
2023-05-19T02:43:18.048Z,99.41
2023-05-19T02:44:18.043Z,99.52
2023-05-19T02:45:18.277Z,99.62
2023-05-19T02:46:18.004Z,99.82
2023-05-19T02:47:17.973Z,99.93
2023-05-19T02:48:17.964Z,99.99
2023-05-19T02:49:17.981Z,99.99
2023-05-19T02:50:17.936Z,99.99
2023-05-19T02:51:17.950Z,99.99
2023-05-19T02:52:18.245Z,99.99
2023-05-19T02:53:17.913Z,99.99
2023-05-19T02:54:17.901Z,99.99
2023-05-19T02:55:17.926Z,99.99
2023-05-19T02:56:17.878Z,99.99
2023-05-19T02:57:17.860Z,99.99
2023-05-19T02:58:17.857Z,99.99
2023-05-19T02:59:18.146Z,99.99
2023-05-19T03:00:17.824Z,99.99
2023-05-19T03:01:17.935Z,99.99
2023-05-19T03:02:17.803Z,99.99
2023-05-19T03:03:17.921Z,99.99
2023-05-19T03:04:17.768Z,99.99
2023-05-19T03:05:17.776Z,99.99
2023-05-19T03:06:18.116Z,99.99
2023-05-19T03:07:17.820Z,99.99
2023-05-19T03:08:17.767Z,99.99
2023-05-19T03:09:17.761Z,99.99
2023-05-19T03:10:17.734Z,99.99
2023-05-19T03:11:17.743Z,99.99
2023-05-19T03:12:17.697Z,99.99
2023-05-19T03:13:18.009Z,99.99
2023-05-19T03:14:17.683Z,99.99
2023-05-19T03:15:17.663Z,99.99
2023-05-19T03:16:17.696Z,99.99
2023-05-19T03:17:17.693Z,99.99
2023-05-19T03:18:17.656Z,99.99
2023-05-19T03:19:17.731Z,99.99
2023-05-19T03:20:17.917Z,99.99
2023-05-19T03:21:17.647Z,99.99
2023-05-19T03:22:17.604Z,99.99
2023-05-19T03:23:17.585Z,99.99
2023-05-19T03:24:17.606Z,99.99
2023-05-19T03:25:17.621Z,99.99
2023-05-19T03:26:17.555Z,99.99
2023-05-19T03:27:17.866Z,99.99
2023-05-19T03:28:17.530Z,99.99
2023-05-19T03:29:17.546Z,99.99
2023-05-19T03:30:17.541Z,99.99
2023-05-19T03:31:17.576Z,99.99
2023-05-19T03:32:17.538Z,99.99
2023-05-19T03:33:17.563Z,99.99
2023-05-19T03:34:17.772Z,99.99
2023-05-19T03:35:17.471Z,99.99
2023-05-19T03:36:17.461Z,99.99
2023-05-19T03:37:17.489Z,99.99
2023-05-19T03:38:17.457Z,99.99
2023-05-19T03:39:17.428Z,99.99
2023-05-19T03:40:17.428Z,99.99
2023-05-19T03:41:17.724Z,99.99
2023-05-19T03:42:17.408Z,99.99
2023-05-19T03:43:38.403Z,99.99
2023-05-19T03:44:17.370Z,99.99
2023-05-19T03:45:17.354Z,99.99
2023-05-19T03:46:17.372Z,99.99
2023-05-19T03:47:17.355Z,99.99
2023-05-19T03:48:20.386Z,99.99
2023-05-19T03:49:17.370Z,99.99
2023-05-19T03:50:17.323Z,99.99
2023-05-19T03:51:17.585Z,99.99
2023-05-19T03:52:17.316Z,99.99
2023-05-19T03:53:17.303Z,99.99
2023-05-19T03:54:17.259Z,99.99
2023-05-19T03:55:17.314Z,99.99
2023-05-19T03:56:17.253Z,99.99
2023-05-19T03:57:17.245Z,99.99
2023-05-19T03:58:17.515Z,99.99
2023-05-19T03:59:17.232Z,99.99
2023-05-19T04:00:17.220Z,99.99
2023-05-19T04:01:17.246Z,99.99
2023-05-19T04:02:17.262Z,99.99
2023-05-19T04:03:17.382Z,99.99
2023-05-19T04:04:17.224Z,99.99
2023-05-19T04:05:17.433Z,99.99
2023-05-19T04:06:17.154Z,99.99
2023-05-19T04:07:17.158Z,99.99
2023-05-19T04:08:17.134Z,99.99
2023-05-19T04:09:17.101Z,99.99
2023-05-19T04:10:17.144Z,99.99
2023-05-19T04:11:17.102Z,99.99
2023-05-19T04:12:17.360Z,99.99
2023-05-19T04:13:17.136Z,99.99
2023-05-19T04:14:17.086Z,99.99
2023-05-19T04:15:17.050Z,99.99
2023-05-19T04:16:17.104Z,99.99
2023-05-19T04:17:17.052Z,99.99
2023-05-19T04:18:17.024Z,99.99
2023-05-19T04:19:17.764Z,99.99
2023-05-19T04:20:17.013Z,99.99
2023-05-19T04:21:16.988Z,99.99
2023-05-19T04:22:16.986Z,99.99
2023-05-19T04:23:16.978Z,99.99
2023-05-19T04:24:16.968Z,99.99
2023-05-19T04:25:16.993Z,99.99
2023-05-19T04:26:16.940Z,99.99
2023-05-19T04:27:16.920Z,99.99
2023-05-19T04:28:16.933Z,99.99
2023-05-19T04:29:16.900Z,99.99
2023-05-19T04:30:18.417Z,99.99
2023-05-19T04:31:16.965Z,99.99
2023-05-19T04:32:17.153Z,99.99
2023-05-19T04:33:16.884Z,99.99
2023-05-19T04:34:16.853Z,99.99
2023-05-19T04:35:16.853Z,99.99
2023-05-19T04:36:16.832Z,99.99
2023-05-19T04:37:16.857Z,99.99
2023-05-19T04:38:16.819Z,99.47
2023-05-19T04:39:17.079Z,99.32
2023-05-19T04:40:16.807Z,99.11
2023-05-19T04:41:16.822Z,98.60
2023-05-19T04:42:16.804Z,98.60
2023-05-19T04:43:16.794Z,98.50
2023-05-19T04:44:16.750Z,98.19
2023-05-19T04:45:16.734Z,97.94
2023-05-19T04:46:17.050Z,97.63
2023-05-19T04:47:16.720Z,97.52
2023-05-19T04:48:16.742Z,97.31
2023-05-19T04:49:16.741Z,96.91
2023-05-19T04:50:16.686Z,96.39
2023-05-19T04:51:16.708Z,96.03
2023-05-19T04:52:16.679Z,96.03
2023-05-19T04:53:16.964Z,95.93
2023-05-19T04:54:16.656Z,95.52
2023-05-19T04:55:16.679Z,95.21
2023-05-19T04:56:16.627Z,94.90
2023-05-19T04:57:16.631Z,94.76
2023-05-19T04:58:16.605Z,94.24
2023-05-19T04:59:16.594Z,94.24
2023-05-19T05:00:16.940Z,94.13
2023-05-19T05:01:16.761Z,93.93
2023-05-19T05:02:16.699Z,93.52
2023-05-19T05:03:16.703Z,93.48
2023-05-19T05:04:16.675Z,93.27
2023-05-19T05:05:16.556Z,93.16
2023-05-19T05:06:16.530Z,92.96
2023-05-19T05:07:16.824Z,92.50
2023-05-19T05:08:16.505Z,92.50
2023-05-19T05:09:16.487Z,92.50
2023-05-19T05:10:16.486Z,92.10
2023-05-19T05:11:16.479Z,91.38
2023-05-19T05:12:16.457Z,90.72
2023-05-19T05:13:16.487Z,90.51
2023-05-19T05:14:16.707Z,90.09
2023-05-19T05:15:16.425Z,89.89
2023-05-19T05:16:16.436Z,89.23
2023-05-19T05:17:16.415Z,89.03
2023-05-19T05:18:16.400Z,88.92
2023-05-19T05:19:16.586Z,88.82
2023-05-19T05:20:16.377Z,88.47
2023-05-19T05:21:16.650Z,88.37
2023-05-19T05:22:16.354Z,87.96
2023-05-19T05:23:16.356Z,87.65
2023-05-19T05:24:16.370Z,87.45
2023-05-19T05:25:16.383Z,87.40
2023-05-19T05:26:16.313Z,86.99
2023-05-19T05:27:16.298Z,86.58
2023-05-19T05:28:16.607Z,86.89
2023-05-19T05:29:16.303Z,86.99
2023-05-19T05:30:16.258Z,87.40
2023-05-19T05:31:16.338Z,87.26
2023-05-19T05:32:16.300Z,86.44
2023-05-19T05:33:16.414Z,85.82
2023-05-19T05:34:16.253Z,85.21
2023-05-19T05:35:16.552Z,85.68
2023-05-19T05:36:16.208Z,85.89
2023-05-19T05:37:16.263Z,85.89
2023-05-19T05:38:16.195Z,85.99
2023-05-19T05:39:16.171Z,86.19
2023-05-19T05:40:16.168Z,86.46
2023-05-19T05:41:16.158Z,86.05
2023-05-19T05:42:16.161Z,85.23
2023-05-19T05:43:16.178Z,84.92
2023-05-19T05:44:16.137Z,84.37
2023-05-19T05:45:16.111Z,84.47
2023-05-19T05:46:16.145Z,83.14
2023-05-19T05:47:16.097Z,82.63
2023-05-19T05:48:16.432Z,82.18
2023-05-19T05:49:16.110Z,82.69
2023-05-19T05:50:16.072Z,81.67
2023-05-19T05:51:16.065Z,81.67
2023-05-19T05:52:16.058Z,81.73
2023-05-19T05:53:16.046Z,82.14
2023-05-19T05:54:16.028Z,81.22
2023-05-19T05:55:16.346Z,80.60
2023-05-19T05:56:16.016Z,80.16
2023-05-19T05:57:15.996Z,80.36
2023-05-19T05:58:16.000Z,79.64
2023-05-19T05:59:15.968Z,79.34
2023-05-19T06:00:15.998Z,79.96
2023-05-19T06:01:16.000Z,79.82
2023-05-19T06:02:15.992Z,80.33
2023-05-19T06:03:16.041Z,79.50
2023-05-19T06:04:15.916Z,79.37
2023-05-19T06:05:15.966Z,79.68
2023-05-19T06:06:15.902Z,78.61
2023-05-19T06:07:16.251Z,77.28
2023-05-19T06:08:15.897Z,73.91
2023-05-19T06:09:15.887Z,70.31
2023-05-19T06:10:15.903Z,67.77
2023-05-19T06:11:15.851Z,65.99
2023-05-19T06:12:15.850Z,63.82
2023-05-19T06:13:16.159Z,62.65
2023-05-19T06:14:15.822Z,61.68
2023-05-19T06:15:15.835Z,61.24
2023-05-19T06:16:15.863Z,60.71
2023-05-19T06:17:15.819Z,60.50
2023-05-19T06:18:15.801Z,60.48
2023-05-19T06:19:15.863Z,58.43
2023-05-19T06:20:15.776Z,57.87
2023-05-19T06:21:15.780Z,56.02
2023-05-19T06:22:15.749Z,56.02
2023-05-19T06:23:15.789Z,55.87
2023-05-19T06:24:15.723Z,54.94
2023-05-19T06:25:15.793Z,53.20
2023-05-19T06:26:16.052Z,53.07
2023-05-19T06:27:15.674Z,52.06
2023-05-19T06:28:15.688Z,54.03
2023-05-19T06:29:15.666Z,53.65
2023-05-19T06:30:15.679Z,53.85
2023-05-19T06:31:15.769Z,55.04
2023-05-19T06:32:15.677Z,53.00
2023-05-19T06:33:15.934Z,51.86
2023-05-19T06:34:15.665Z,51.73
2023-05-19T06:35:15.587Z,51.39
2023-05-19T06:36:15.627Z,50.18
2023-05-19T06:37:15.613Z,50.48
2023-05-19T06:38:15.584Z,50.58
2023-05-19T06:39:15.569Z,50.60
2023-05-19T06:40:15.847Z,50.18
2023-05-19T06:41:15.542Z,50.10
2023-05-19T06:42:15.569Z,50.63
2023-05-19T06:43:15.589Z,51.03
2023-05-19T06:44:15.519Z,51.01
2023-05-19T06:45:15.494Z,49.98
2023-05-19T06:46:15.512Z,49.42
2023-05-19T06:47:15.930Z,50.31
2023-05-19T06:48:15.542Z,50.48
2023-05-19T06:49:15.535Z,50.46
2023-05-19T06:50:15.531Z,49.73
2023-05-19T06:51:15.450Z,49.01
2023-05-19T06:52:15.465Z,47.27
2023-05-19T06:53:15.444Z,46.69
2023-05-19T06:54:15.733Z,46.97
2023-05-19T06:55:15.469Z,47.15
2023-05-19T06:56:15.445Z,47.20
2023-05-19T06:57:15.433Z,46.53
2023-05-19T06:58:15.479Z,45.83
2023-05-19T06:59:15.355Z,45.70
2023-05-19T07:00:18.297Z,45.60
2023-05-19T07:01:15.883Z,45.48
2023-05-19T07:02:15.391Z,46.56
2023-05-19T07:03:15.415Z,47.08
2023-05-19T07:04:15.417Z,45.78
2023-05-19T07:05:15.316Z,45.17
2023-05-19T07:06:15.306Z,47.38
2023-05-19T07:07:15.602Z,47.39
2023-05-19T07:08:15.303Z,49.22
2023-05-19T07:09:15.331Z,49.22
2023-05-19T07:10:15.267Z,50.23
2023-05-19T07:11:15.297Z,49.01
2023-05-19T07:12:15.262Z,47.62
2023-05-19T07:13:15.283Z,47.06
2023-05-19T07:14:15.559Z,49.50
2023-05-19T07:15:15.223Z,48.14
2023-05-19T07:16:15.386Z,47.34
2023-05-19T07:17:15.810Z,47.12
2023-05-19T07:18:15.175Z,47.34
2023-05-19T07:19:15.316Z,48.47
2023-05-19T07:20:15.196Z,49.55
2023-05-19T07:21:15.391Z,47.14
2023-05-19T07:22:15.125Z,47.64
2023-05-19T07:23:17.222Z,47.22
2023-05-19T07:24:15.196Z,48.20
2023-05-19T07:25:15.256Z,46.55
2023-05-19T07:26:15.119Z,46.42
2023-05-19T07:27:15.090Z,46.12
2023-05-19T07:28:15.364Z,45.92
2023-05-19T07:29:15.056Z,45.62
2023-05-19T07:30:15.046Z,45.89
2023-05-19T07:31:15.157Z,47.32
2023-05-19T07:32:15.196Z,46.89
2023-05-19T07:33:15.121Z,46.72
2023-05-19T07:34:15.008Z,47.24
2023-05-19T07:35:15.292Z,47.24
2023-05-19T07:36:14.992Z,48.07
2023-05-19T07:37:15.031Z,48.17
2023-05-19T07:38:14.948Z,48.82
2023-05-19T07:39:15.012Z,48.39
2023-05-19T07:40:14.940Z,49.10
2023-05-19T07:41:14.926Z,48.57
2023-05-19T07:42:15.262Z,47.86
2023-05-19T07:43:14.931Z,48.43
2023-05-19T07:44:14.955Z,47.92
2023-05-19T07:45:14.871Z,48.02
2023-05-19T07:46:14.942Z,47.62
2023-05-19T07:47:14.855Z,48.43
2023-05-19T07:48:14.951Z,47.00
2023-05-19T07:49:15.144Z,46.87
2023-05-19T07:50:14.910Z,48.78
2023-05-19T07:51:14.809Z,47.97
2023-05-19T07:52:14.815Z,45.95
2023-05-19T07:53:14.805Z,46.15
2023-05-19T07:54:14.767Z,46.65
2023-05-19T07:55:14.815Z,46.37
2023-05-19T07:56:14.789Z,47.88
2023-05-19T07:57:14.747Z,47.58
2023-05-19T07:58:14.737Z,47.97
2023-05-19T07:59:14.759Z,46.49
2023-05-19T08:00:14.727Z,46.09
2023-05-19T08:01:14.793Z,46.97
2023-05-19T08:02:15.023Z,46.77
2023-05-19T08:03:14.860Z,47.58
2023-05-19T08:04:14.786Z,44.67
2023-05-19T08:05:14.687Z,47.22
2023-05-19T08:06:14.715Z,46.72
2023-05-19T08:07:14.738Z,45.81
2023-05-19T08:08:15.262Z,45.61
2023-05-19T08:09:14.642Z,46.47
2023-05-19T08:10:14.630Z,46.87
2023-05-19T08:11:14.587Z,45.14
2023-05-19T08:12:14.661Z,45.18
2023-05-19T08:13:14.641Z,47.50
2023-05-19T08:14:14.928Z,48.18
2023-05-19T08:15:14.567Z,46.03
2023-05-19T08:16:14.636Z,46.41
2023-05-19T08:17:14.551Z,43.48
2023-05-19T08:18:14.580Z,44.00
2023-05-19T08:19:14.594Z,45.42
2023-05-19T08:20:14.512Z,45.53
2023-05-19T08:21:14.574Z,45.48
2023-05-19T08:22:14.483Z,45.68
2023-05-19T08:23:14.487Z,44.30
2023-05-19T08:24:14.487Z,44.20
2023-05-19T08:25:14.853Z,45.63
2023-05-19T08:26:14.848Z,45.95
2023-05-19T08:27:14.449Z,48.09
2023-05-19T08:28:14.464Z,48.19
2023-05-19T08:29:14.440Z,49.05
2023-05-19T08:30:14.419Z,44.95
2023-05-19T08:31:14.500Z,45.82
2023-05-19T08:32:14.388Z,46.57
2023-05-19T08:33:14.720Z,47.19
2023-05-19T08:34:14.378Z,46.57
2023-05-19T08:35:14.373Z,46.65
2023-05-19T08:36:14.348Z,47.23
2023-05-19T08:37:14.406Z,45.19
2023-05-19T08:38:14.354Z,45.09
2023-05-19T08:39:14.340Z,45.19
2023-05-19T08:40:14.644Z,46.26
2023-05-19T08:41:14.404Z,44.63
2023-05-19T08:42:14.285Z,43.78
2023-05-19T08:43:14.352Z,42.96
2023-05-19T08:44:14.999Z,42.05
2023-05-19T08:45:14.299Z,41.37
2023-05-19T08:46:14.314Z,42.05
2023-05-19T08:47:14.535Z,43.24
2023-05-19T08:48:14.265Z,43.22
2023-05-19T08:49:14.256Z,43.04
2023-05-19T08:50:14.246Z,42.24
2023-05-19T08:51:14.183Z,40.93
2023-05-19T08:52:14.256Z,39.93
2023-05-19T08:53:25.092Z,40.61
2023-05-19T08:54:14.195Z,41.21
2023-05-19T08:55:14.256Z,40.41
2023-05-19T08:56:14.123Z,41.53
2023-05-19T08:57:14.158Z,41.53
2023-05-19T08:58:14.113Z,41.31
2023-05-19T08:59:14.094Z,40.71
2023-05-19T09:00:14.417Z,43.12
2023-05-19T09:01:14.210Z,41.69
2023-05-19T09:02:14.093Z,43.08
2023-05-19T09:03:18.525Z,42.74
2023-05-19T09:04:14.298Z,40.03
2023-05-19T09:05:14.058Z,38.87
2023-05-19T09:06:14.086Z,40.71
2023-05-19T09:07:14.079Z,41.74
2023-05-19T09:08:14.035Z,40.65
2023-05-19T09:09:14.000Z,40.47
2023-05-19T09:10:14.034Z,41.61
2023-05-19T09:11:14.228Z,41.93
2023-05-19T09:12:13.978Z,42.74
2023-05-19T09:13:14.589Z,43.24
2023-05-19T09:14:13.982Z,44.45
2023-05-19T09:15:13.965Z,44.17
2023-05-19T09:16:13.988Z,43.96
2023-05-19T09:17:13.929Z,43.84
2023-05-19T09:18:13.924Z,43.20
2023-05-19T09:19:14.048Z,42.03
2023-05-19T09:20:14.224Z,40.63
2023-05-19T09:21:13.894Z,41.37
2023-05-19T09:22:13.887Z,43.00
2023-05-19T09:23:13.948Z,43.62
2023-05-19T09:24:13.873Z,43.64
2023-05-19T09:25:14.371Z,43.36
2023-05-19T09:26:13.840Z,43.46
2023-05-19T09:27:13.834Z,43.24
2023-05-19T09:28:13.870Z,42.69
2023-05-19T09:29:13.829Z,41.85
2023-05-19T09:30:13.816Z,39.62
2023-05-19T09:31:13.868Z,39.21
2023-05-19T09:32:14.074Z,39.34
2023-05-19T09:33:13.871Z,40.17
2023-05-19T09:34:13.753Z,40.81
2023-05-19T09:35:13.750Z,42.21
2023-05-19T09:36:13.785Z,42.19
2023-05-19T09:37:13.776Z,40.28
2023-05-19T09:38:13.703Z,40.19
2023-05-19T09:39:13.717Z,40.61
2023-05-19T09:40:13.768Z,40.61
2023-05-19T09:41:13.692Z,41.17
2023-05-19T09:42:14.460Z,40.15
2023-05-19T09:43:13.746Z,40.26
2023-05-19T09:44:13.964Z,40.17
2023-05-19T09:45:13.647Z,41.29
2023-05-19T09:46:14.572Z,40.41
2023-05-19T09:47:13.639Z,39.18
2023-05-19T09:48:13.630Z,40.61
2023-05-19T09:49:13.630Z,40.69
2023-05-19T09:50:13.629Z,41.25
2023-05-19T09:51:13.887Z,40.33
2023-05-19T09:52:13.556Z,40.31
2023-05-19T09:53:13.563Z,40.09
2023-05-19T09:54:13.635Z,39.17
2023-05-19T09:55:13.638Z,39.95
2023-05-19T09:56:13.573Z,40.45
2023-05-19T09:57:13.495Z,40.15
2023-05-19T09:58:13.813Z,38.87
2023-05-19T09:59:13.578Z,39.18
2023-05-19T10:00:13.528Z,38.31
2023-05-19T10:01:14.831Z,38.49
2023-05-19T10:02:13.667Z,38.97
2023-05-19T10:03:13.530Z,38.67
2023-05-19T10:04:13.433Z,38.27
2023-05-19T10:05:13.758Z,39.95
2023-05-19T10:06:13.406Z,37.79
2023-05-19T10:07:13.589Z,38.42
2023-05-19T10:08:13.440Z,39.25
2023-05-19T10:09:13.427Z,39.47
2023-05-19T10:10:13.369Z,40.73
2023-05-19T10:11:13.396Z,41.82
2023-05-19T10:12:13.864Z,41.97
2023-05-19T10:13:13.395Z,40.97
2023-05-19T10:14:13.421Z,40.95
2023-05-19T10:15:13.335Z,40.35
2023-05-19T10:16:13.369Z,38.59
2023-05-19T10:17:13.313Z,39.62
2023-05-19T10:18:13.367Z,38.92
2023-05-19T10:19:13.325Z,38.59
2023-05-19T10:20:13.266Z,39.67
2023-05-19T10:21:13.312Z,38.67
2023-05-19T10:22:13.284Z,37.66
2023-05-19T10:23:13.291Z,37.65
2023-05-19T10:24:13.419Z,37.43
2023-05-19T10:25:13.554Z,38.42
2023-05-19T10:26:13.218Z,38.31
2023-05-19T10:27:13.189Z,39.09
2023-05-19T10:28:13.191Z,38.20
2023-05-19T10:29:13.219Z,38.20
2023-05-19T10:30:14.331Z,38.70
2023-05-19T10:31:13.191Z,37.88
2023-05-19T10:32:13.476Z,38.56
2023-05-19T10:33:13.212Z,37.96
2023-05-19T10:34:13.135Z,37.34
2023-05-19T10:35:13.115Z,37.46
2023-05-19T10:36:13.176Z,35.10
2023-05-19T10:37:13.165Z,35.80
2023-05-19T10:38:13.093Z,37.49
2023-05-19T10:39:13.617Z,37.99
2023-05-19T10:40:13.109Z,37.77
2023-05-19T10:41:14.433Z,37.58
2023-05-19T10:42:13.227Z,37.76
2023-05-19T10:43:13.410Z,37.40
2023-05-19T10:44:13.148Z,37.98
2023-05-19T10:45:13.237Z,37.36
2023-05-19T10:46:13.540Z,37.86
2023-05-19T10:47:13.295Z,36.06
2023-05-19T10:48:13.009Z,35.38
2023-05-19T10:49:13.059Z,36.47
2023-05-19T10:50:12.993Z,35.18
2023-05-19T10:51:13.115Z,36.38
2023-05-19T10:52:12.982Z,35.80
2023-05-19T10:53:13.213Z,35.69
2023-05-19T10:54:14.375Z,36.01
2023-05-19T10:55:13.149Z,35.19
2023-05-19T10:56:12.892Z,35.88
2023-05-19T10:57:12.988Z,36.46
2023-05-19T10:58:13.214Z,36.15
2023-05-19T10:59:12.853Z,35.35
2023-05-19T11:00:13.239Z,37.56
2023-05-19T11:01:12.956Z,36.78
2023-05-19T11:02:13.050Z,37.18
2023-05-19T11:03:12.860Z,37.27
2023-05-19T11:04:12.834Z,37.36
2023-05-19T11:05:12.877Z,38.54
2023-05-19T11:06:12.888Z,36.36
2023-05-19T11:07:13.135Z,36.56
2023-05-19T11:08:12.776Z,37.84
2023-05-19T11:09:12.746Z,37.02
2023-05-19T11:10:12.849Z,35.54
2023-05-19T11:11:12.716Z,38.24
2023-05-19T11:12:12.750Z,36.02
2023-05-19T11:13:12.772Z,35.93
2023-05-19T11:14:13.019Z,34.63
2023-05-19T11:15:12.731Z,35.03
2023-05-19T11:16:12.734Z,37.54
2023-05-19T11:17:12.680Z,36.36
2023-05-19T11:18:12.747Z,36.54
2023-05-19T11:19:12.760Z,35.33
2023-05-19T11:20:12.688Z,34.51
2023-05-19T11:21:13.035Z,35.68
2023-05-19T11:22:12.662Z,35.75
2023-05-19T11:23:12.706Z,34.98
2023-05-19T11:24:12.607Z,35.39
2023-05-19T11:25:12.728Z,36.72
2023-05-19T11:26:12.620Z,36.26
2023-05-19T11:27:12.590Z,35.99
2023-05-19T11:28:12.853Z,37.23
2023-05-19T11:29:12.556Z,37.66
2023-05-19T11:30:12.584Z,38.18
2023-05-19T11:31:12.583Z,39.39
2023-05-19T11:32:12.627Z,39.18
2023-05-19T11:33:12.538Z,39.51
2023-05-19T11:34:12.492Z,40.03
2023-05-19T11:35:12.771Z,39.75
2023-05-19T11:36:12.484Z,40.26
2023-05-19T11:37:12.528Z,40.67
2023-05-19T11:38:12.535Z,41.27
2023-05-19T11:39:12.447Z,41.57
2023-05-19T11:40:12.476Z,41.67
2023-05-19T11:41:12.450Z,41.87
2023-05-19T11:42:12.713Z,41.63
2023-05-19T11:43:12.445Z,40.69
2023-05-19T11:44:12.408Z,38.43
2023-05-19T11:45:12.380Z,37.18
2023-05-19T11:46:12.431Z,37.24
2023-05-19T11:47:12.365Z,35.49
2023-05-19T11:48:12.410Z,36.25
2023-05-19T11:49:12.713Z,34.75
2023-05-19T11:50:12.427Z,35.47
2023-05-19T11:51:12.863Z,36.21
2023-05-19T11:52:12.380Z,36.98
2023-05-19T11:53:12.292Z,38.11
2023-05-19T11:54:12.373Z,39.65
2023-05-19T11:55:12.331Z,39.57
2023-05-19T11:56:12.614Z,41.01
2023-05-19T11:57:12.335Z,41.60
2023-05-19T11:58:12.301Z,41.21
2023-05-19T11:59:12.243Z,41.82
2023-05-19T12:00:12.323Z,41.83
2023-05-19T12:01:12.338Z,41.93
2023-05-19T12:02:12.242Z,42.11
2023-05-19T12:03:12.338Z,39.57
2023-05-19T12:04:12.873Z,39.11
2023-05-19T12:05:12.227Z,40.16
2023-05-19T12:06:12.259Z,36.13
2023-05-19T12:07:12.216Z,36.31
2023-05-19T12:08:12.246Z,36.07
2023-05-19T12:09:12.415Z,35.56
2023-05-19T12:10:12.227Z,37.25
2023-05-19T12:11:12.128Z,35.16
2023-05-19T12:12:12.104Z,36.34
2023-05-19T12:13:12.201Z,35.80
2023-05-19T12:14:12.157Z,35.01
2023-05-19T12:15:12.067Z,35.42
2023-05-19T12:16:12.116Z,36.74
2023-05-19T12:17:12.061Z,36.89
2023-05-19T12:18:12.079Z,38.22
2023-05-19T12:19:12.161Z,39.34
2023-05-19T12:20:12.037Z,39.43
2023-05-19T12:21:12.306Z,39.95
2023-05-19T12:22:12.014Z,39.98
2023-05-19T12:23:11.996Z,40.08
2023-05-19T12:24:12.039Z,39.15
2023-05-19T12:25:12.011Z,38.44
2023-05-19T12:26:12.150Z,39.64
2023-05-19T12:27:12.313Z,38.12
2023-05-19T12:28:11.930Z,36.82
2023-05-19T12:29:11.929Z,36.43
2023-05-19T12:30:11.907Z,36.02
2023-05-19T12:31:12.007Z,36.41
2023-05-19T12:32:11.918Z,35.88
2023-05-19T12:33:11.925Z,36.95
2023-05-19T12:34:12.167Z,33.26
2023-05-19T12:35:11.864Z,33.65
2023-05-19T12:36:11.864Z,33.86
2023-05-19T12:37:11.882Z,33.48
2023-05-19T12:38:11.842Z,34.16
2023-05-19T12:39:11.837Z,34.46
2023-05-19T12:40:11.805Z,34.78
2023-05-19T12:41:12.135Z,35.19
2023-05-19T12:42:11.793Z,36.79
2023-05-19T12:43:11.821Z,38.60
2023-05-19T12:44:11.788Z,37.66
2023-05-19T12:45:11.771Z,39.81
2023-05-19T12:46:11.775Z,41.53
2023-05-19T12:47:11.749Z,42.05
2023-05-19T12:48:11.945Z,41.27
2023-05-19T12:49:11.763Z,41.60
2023-05-19T12:50:11.750Z,43.30
2023-05-19T12:51:11.732Z,43.40
2023-05-19T12:52:13.092Z,42.68